Time;durP1;ratioP1;P1;durP2;ratioP2;P2;SDS_P1;SDS_P2;PMS_P1;PMS_P2;Temp;Humidity;BMP_temperature;BMP_pressure;BME280_temperature;BME280_humidity;BME280_pressure;Samples;Min_cycle;Max_cycle;Signal;HPM_P1;HPM_P2
2023/04/13 00:02:16;;;;;;;14.15;7.80;;;;;;;;;;5032466;28;20418;-64
2023/04/13 00:04:42;;;;;;;15.02;8.15;;;;;;;;;;5031416;28;20109;-67
2023/04/13 00:07:15;;;;;;;15.45;8.00;;;;;;;;;;5028320;28;20025;-63
2023/04/13 00:09:41;;;;;;;16.13;8.70;;;;;;;;;;5028587;28;20370;-63
2023/04/13 00:12:09;;;;;;;15.05;8.57;;;;;;;;;;5028971;28;20086;-63
2023/04/13 00:14:35;;;;;;;14.63;8.02;;;;;;;;;;5031199;28;20386;-61
2023/04/13 00:17:01;;;;;;;14.85;7.82;;;;;;;;;;5032174;28;20072;-63
2023/04/13 00:19:28;;;;;;;15.80;8.07;;;;;;;;;;5032099;28;20072;-64
2023/04/13 00:21:54;;;;;;;14.15;7.72;;;;;;;;;;5032259;28;20132;-63
2023/04/13 00:24:20;;;;;;;15.10;8.13;;;;;;;;;;5031290;28;20116;-63
2023/04/13 00:26:46;;;;;;;13.88;7.45;;;;;;;;;;5031964;28;20030;-63
2023/04/13 00:29:13;;;;;;;14.63;7.30;;;;;;;;;;5032013;28;20110;-63
2023/04/13 00:31:39;;;;;;;14.88;7.57;;;;;;;;;;5032088;28;20033;-64
2023/04/13 00:34:05;;;;;;;13.88;7.40;;;;;;;;;;5031353;28;20026;-64
2023/04/13 00:36:32;;;;;;;15.10;7.80;;;;;;;;;;5032062;28;20080;-64
2023/04/13 00:38:58;;;;;;;15.35;7.88;;;;;;;;;;5032017;28;20056;-63
2023/04/13 00:41:25;;;;;;;14.52;7.25;;;;;;;;;;5031628;28;20033;-63
2023/04/13 00:43:52;;;;;;;14.20;7.20;;;;;;;;;;5013152;28;20386;-63
2023/04/13 00:46:18;;;;;;;14.18;7.30;;;;;;;;;;5031605;28;20140;-63
2023/04/13 00:48:47;;;;;;;14.23;7.15;;;;;;;;;;5031727;28;20029;-64
2023/04/13 00:51:14;;;;;;;14.55;6.85;;;;;;;;;;5031602;28;20032;-63
2023/04/13 00:53:40;;;;;;;14.30;7.25;;;;;;;;;;5030805;28;20042;-63
2023/04/13 00:56:06;;;;;;;13.77;7.03;;;;;;;;;;5013558;28;20039;-64
2023/04/13 00:58:33;;;;;;;13.23;7.28;;;;;;;;;;5031378;28;20473;-62
2023/04/13 01:00:59;;;;;;;14.60;7.10;;;;;;;;;;5031315;28;20389;-63
2023/04/13 01:03:26;;;;;;;13.57;6.97;;;;;;;;;;5030531;28;20083;-63
2023/04/13 01:05:52;;;;;;;12.95;7.10;;;;;;;;;;5031287;28;20485;-63
2023/04/13 01:08:35;;;;;;;13.35;7.30;;;;;;;;;;5013650;28;20444;-64
2023/04/13 01:11:38;;;;;;;12.98;6.80;;;;;;;;;;5031333;28;20060;-62
2023/04/13 01:14:04;;;;;;;14.88;7.05;;;;;;;;;;4930619;29;20031;-63
2023/04/13 01:16:32;;;;;;;13.13;6.90;;;;;;;;;;5011530;28;20371;-63
2023/04/13 01:18:58;;;;;;;14.73;6.80;;;;;;;;;;5031233;28;20456;-63
2023/04/13 01:21:26;;;;;;;12.13;6.68;;;;;;;;;;5031372;28;20095;-64
2023/04/13 01:24:07;;;;;;;12.25;6.68;;;;;;;;;;5012536;28;20052;-63
2023/04/13 01:26:56;;;;;;;14.68;6.75;;;;;;;;;;5030866;28;20120;-64
2023/04/13 01:29:24;;;;;;;13.15;7.03;;;;;;;;;;5013122;28;20453;-64
2023/04/13 01:31:53;;;;;;;13.07;7.07;;;;;;;;;;5030945;28;20089;-64
2023/04/13 01:34:19;;;;;;;13.18;7.18;;;;;;;;;;5030049;28;20532;-62
2023/04/13 01:36:46;;;;;;;14.73;8.00;;;;;;;;;;5030330;28;20109;-64
2023/04/13 01:39:24;;;;;;;13.57;8.13;;;;;;;;;;5030762;28;20021;-63
2023/04/13 01:41:50;;;;;;;14.40;8.35;;;;;;;;;;5030691;28;20017;-64
2023/04/13 01:44:16;;;;;;;14.85;8.90;;;;;;;;;;5029809;28;20033;-64
2023/04/13 01:46:45;;;;;;;14.30;9.30;;;;;;;;;;5030478;28;20033;-64
2023/04/13 01:49:13;;;;;;;14.70;9.70;;;;;;;;;;5030535;28;20088;-64
2023/04/13 01:51:41;;;;;;;15.60;10.63;;;;;;;;;;5030510;28;20026;-62
2023/04/13 01:54:09;;;;;;;15.40;11.10;;;;;;;;;;5029777;28;20033;-63
2023/04/13 01:56:36;;;;;;;15.60;10.98;;;;;;;;;;5030275;28;20375;-62
2023/04/13 01:59:04;;;;;;;14.85;11.30;;;;;;;;;;5030530;28;20029;-64
2023/04/13 02:01:29;;;;;;;16.47;12.50;;;;;;;;;;5030539;28;20100;-64
2023/04/13 02:03:55;;;;;;;15.85;14.15;;;;;;;;;;5029610;28;20030;-64
2023/04/13 02:06:22;;;;;;;16.98;15.18;;;;;;;;;;5030261;28;20028;-63
2023/04/13 02:08:48;;;;;;;16.80;15.00;;;;;;;;;;5012563;28;20025;-62
2023/04/13 02:11:17;;;;;;;17.23;15.43;;;;;;;;;;5012580;28;20026;-63
2023/04/13 02:13:43;;;;;;;19.20;15.82;;;;;;;;;;5011574;28;20026;-63
2023/04/13 02:16:09;;;;;;;16.98;14.75;;;;;;;;;;5030129;28;20029;-63
2023/04/13 02:18:35;;;;;;;17.02;14.50;;;;;;;;;;5030167;28;20071;-65
2023/04/13 02:21:08;;;;;;;20.05;14.38;;;;;;;;;;5030148;28;20021;-63
2023/04/13 02:23:39;;;;;;;16.30;14.50;;;;;;;;;;5027660;28;20037;-64
2023/04/13 02:26:09;;;;;;;18.27;14.57;;;;;;;;;;5025951;28;20419;-62
2023/04/13 02:28:35;;;;;;;17.70;14.00;;;;;;;;;;5020356;28;20086;-63
2023/04/13 02:31:02;;;;;;;16.33;12.80;;;;;;;;;;5030414;28;20021;-64
2023/04/13 02:33:31;;;;;;;16.10;12.82;;;;;;;;;;5029423;28;20021;-63
2023/04/13 02:35:58;;;;;;;17.65;13.35;;;;;;;;;;5030044;28;20028;-62
2023/04/13 02:38:24;;;;;;;16.95;12.30;;;;;;;;;;5030187;28;20026;-63
2023/04/13 02:40:58;;;;;;;15.93;11.70;;;;;;;;;;5029985;28;20041;-63
2023/04/13 02:43:25;;;;;;;15.77;12.80;;;;;;;;;;5029593;28;20111;-61
2023/04/13 02:45:51;;;;;;;17.25;11.50;;;;;;;;;;5028862;28;20049;-63
2023/04/13 02:48:18;;;;;;;15.80;11.68;;;;;;;;;;5031163;28;20030;-64
2023/04/13 02:50:44;;;;;;;17.23;11.05;;;;;;;;;;5032514;28;20458;-63
2023/04/13 02:53:11;;;;;;;15.82;11.32;;;;;;;;;;5032874;28;20053;-63
2023/04/13 02:55:37;;;;;;;15.48;10.90;;;;;;;;;;5033356;28;20127;-64
2023/04/13 02:58:03;;;;;;;16.10;11.23;;;;;;;;;;5033561;28;20017;-63
2023/04/13 03:00:31;;;;;;;16.77;11.35;;;;;;;;;;5033653;28;20036;-64
2023/04/13 03:02:57;;;;;;;15.73;11.50;;;;;;;;;;5033747;28;20113;-64
2023/04/13 03:05:23;;;;;;;15.30;11.73;;;;;;;;;;5032847;28;20296;-63
2023/04/13 03:07:49;;;;;;;19.52;13.60;;;;;;;;;;5032265;28;20063;-64
2023/04/13 03:10:17;;;;;;;15.65;11.50;;;;;;;;;;5033650;28;20021;-64
2023/04/13 03:12:43;;;;;;;16.73;12.05;;;;;;;;;;5033517;28;20025;-61
2023/04/13 03:15:10;;;;;;;16.80;12.20;;;;;;;;;;5031423;28;20119;-64
2023/04/13 03:17:40;;;;;;;16.38;11.70;;;;;;;;;;5033355;28;20025;-63
2023/04/13 03:20:10;;;;;;;16.85;11.68;;;;;;;;;;5033425;28;20474;-64
2023/04/13 03:22:36;;;;;;;18.17;11.98;;;;;;;;;;5033546;28;20393;-63
2023/04/13 03:25:02;;;;;;;19.95;12.45;;;;;;;;;;5032509;28;20216;-64
2023/04/13 03:27:28;;;;;;;17.30;12.30;;;;;;;;;;5033110;28;20067;-64
2023/04/13 03:29:54;;;;;;;16.45;12.40;;;;;;;;;;5033269;28;20025;-64
2023/04/13 03:32:21;;;;;;;15.63;12.65;;;;;;;;;;5033171;28;20029;-64
2023/04/13 03:34:46;;;;;;;17.88;12.57;;;;;;;;;;5032437;28;20104;-63
2023/04/13 03:37:12;;;;;;;17.33;14.05;;;;;;;;;;5032943;28;20072;-63
2023/04/13 03:39:39;;;;;;;18.05;14.73;;;;;;;;;;5032892;28;20027;-64
2023/04/13 03:42:05;;;;;;;16.67;14.80;;;;;;;;;;5033002;28;20517;-63
2023/04/13 03:44:31;;;;;;;16.38;14.10;;;;;;;;;;5031858;28;20056;-64
2023/04/13 03:46:57;;;;;;;18.20;14.20;;;;;;;;;;5032640;28;20025;-65
2023/04/13 03:49:23;;;;;;;17.55;14.65;;;;;;;;;;5031452;28;20041;-64
2023/04/13 03:51:49;;;;;;;17.58;14.77;;;;;;;;;;5032830;28;20029;-63
2023/04/13 03:54:15;;;;;;;18.20;15.07;;;;;;;;;;5030690;28;20052;-65
2023/04/13 03:56:41;;;;;;;23.05;21.00;;;;;;;;;;5031071;28;20037;-64
2023/04/13 03:59:07;;;;;;;24.67;22.30;;;;;;;;;;5032191;28;20133;-63
2023/04/13 04:01:33;;;;;;;24.83;22.58;;;;;;;;;;5032632;28;20025;-63
2023/04/13 04:03:59;;;;;;;23.63;21.63;;;;;;;;;;5030530;28;20105;-64
2023/04/13 04:06:28;;;;;;;23.90;21.67;;;;;;;;;;5032397;28;20390;-62
2023/04/13 04:08:54;;;;;;;23.23;21.13;;;;;;;;;;5032384;28;20367;-64
2023/04/13 04:11:21;;;;;;;21.73;19.65;;;;;;;;;;5032658;28;20462;-63
2023/04/13 04:13:47;;;;;;;20.83;18.83;;;;;;;;;;5031847;28;20052;-63
2023/04/13 04:16:13;;;;;;;20.80;18.77;;;;;;;;;;5032421;28;20017;-62
2023/04/13 04:18:39;;;;;;;19.98;17.98;;;;;;;;;;5032456;28;20091;-64
2023/04/13 04:21:06;;;;;;;19.33;17.17;;;;;;;;;;5032331;28;20057;-62
2023/04/13 04:23:33;;;;;;;19.77;17.73;;;;;;;;;;5030049;28;20033;-63
2023/04/13 04:26:01;;;;;;;19.30;17.40;;;;;;;;;;5030907;28;20021;-63
2023/04/13 04:28:29;;;;;;;23.75;17.42;;;;;;;;;;5032110;28;20085;-69
2023/04/13 04:30:55;;;;;;;20.00;18.02;;;;;;;;;;5030665;28;20381;-63
2023/04/13 04:33:21;;;;;;;20.52;18.42;;;;;;;;;;5029839;28;20378;-63
2023/04/13 04:35:49;;;;;;;22.00;19.90;;;;;;;;;;5031881;28;20068;-64
2023/04/13 04:38:16;;;;;;;24.67;22.58;;;;;;;;;;5029378;28;20021;-62
2023/04/13 04:40:44;;;;;;;26.40;24.20;;;;;;;;;;5031275;28;20024;-64
2023/04/13 04:43:12;;;;;;;27.58;25.27;;;;;;;;;;5030987;28;20339;-64
2023/04/13 04:45:40;;;;;;;27.50;25.05;;;;;;;;;;5031485;28;20075;-63
2023/04/13 04:48:06;;;;;;;29.58;27.08;;;;;;;;;;5013711;28;20064;-64
2023/04/13 04:50:32;;;;;;;36.50;33.22;;;;;;;;;;5013887;28;20034;-65
2023/04/13 04:52:58;;;;;;;36.88;34.08;;;;;;;;;;5031092;28;20024;-63
2023/04/13 04:55:25;;;;;;;37.53;34.45;;;;;;;;;;5030680;28;20025;-63
2023/04/13 04:57:51;;;;;;;38.47;35.55;;;;;;;;;;5031435;28;20492;-62
2023/04/13 05:00:17;;;;;;;41.25;38.05;;;;;;;;;;5031545;28;20093;-62
2023/04/13 05:02:43;;;;;;;42.55;39.22;;;;;;;;;;5029987;28;20029;-62
2023/04/13 05:05:10;;;;;;;40.03;36.92;;;;;;;;;;5030253;28;20461;-63
2023/04/13 05:07:37;;;;;;;38.85;35.85;;;;;;;;;;5031208;28;20042;-63
2023/04/13 05:10:03;;;;;;;37.33;34.40;;;;;;;;;;5031085;28;20040;-63
2023/04/13 05:12:29;;;;;;;37.65;34.55;;;;;;;;;;5030831;28;20057;-63
2023/04/13 05:14:55;;;;;;;38.08;35.13;;;;;;;;;;5030520;28;20086;-63
2023/04/13 05:17:24;;;;;;;36.83;33.92;;;;;;;;;;5031151;28;20412;-62
2023/04/13 05:19:50;;;;;;;35.58;32.78;;;;;;;;;;5031160;28;20531;-62
2023/04/13 05:22:17;;;;;;;36.80;33.83;;;;;;;;;;5029617;28;20118;-63
2023/04/13 05:24:43;;;;;;;34.70;31.60;;;;;;;;;;5029807;28;20045;-63
2023/04/13 05:27:10;;;;;;;33.60;30.90;;;;;;;;;;5030905;28;20040;-63
2023/04/13 05:29:36;;;;;;;33.05;30.35;;;;;;;;;;5031043;28;20021;-63
2023/04/13 05:32:02;;;;;;;32.67;29.95;;;;;;;;;;5030812;28;20048;-64
2023/04/13 05:34:29;;;;;;;30.92;28.33;;;;;;;;;;5029878;28;20029;-63
2023/04/13 05:36:56;;;;;;;31.08;28.48;;;;;;;;;;5030805;28;20103;-63
2023/04/13 05:39:23;;;;;;;29.70;27.20;;;;;;;;;;5030607;28;20029;-63
2023/04/13 05:41:49;;;;;;;29.65;27.25;;;;;;;;;;5030697;28;20299;-64
2023/04/13 05:44:15;;;;;;;28.92;26.58;;;;;;;;;;5029815;28;20467;-64
2023/04/13 05:46:41;;;;;;;27.52;25.33;;;;;;;;;;5030618;28;20044;-63
2023/04/13 05:49:08;;;;;;;27.55;25.25;;;;;;;;;;5030726;28;20056;-63
2023/04/13 05:51:34;;;;;;;28.95;26.55;;;;;;;;;;5030243;28;20449;-64
2023/04/13 05:54:01;;;;;;;32.88;30.17;;;;;;;;;;5029422;28;20025;-63
2023/04/13 05:56:30;;;;;;;37.75;34.20;;;;;;;;;;5036787;23;20068;-62
2023/04/13 05:58:56;;;;;;;41.65;38.55;;;;;;;;;;5019417;28;20492;-64
2023/04/13 06:01:23;;;;;;;43.58;40.22;;;;;;;;;;5021921;28;20498;-64
2023/04/13 06:03:51;;;;;;;42.53;39.15;;;;;;;;;;5025536;28;20037;-62
2023/04/13 06:06:17;;;;;;;41.97;38.78;;;;;;;;;;5024144;28;20034;-63
2023/04/13 06:08:43;;;;;;;42.95;39.55;;;;;;;;;;4997834;28;20116;-62
2023/04/13 06:11:10;;;;;;;43.63;40.33;;;;;;;;;;5016305;28;20033;-59
2023/04/13 06:13:36;;;;;;;43.33;39.92;;;;;;;;;;5004065;28;20134;-63
2023/04/13 06:16:02;;;;;;;43.67;40.28;;;;;;;;;;4992333;28;20023;-62
2023/04/13 06:18:28;;;;;;;43.92;40.33;;;;;;;;;;4993047;28;20046;-63
2023/04/13 06:20:55;;;;;;;43.80;40.50;;;;;;;;;;4992404;28;20027;-63
2023/04/13 06:23:21;;;;;;;43.50;40.00;;;;;;;;;;4994860;28;20070;-62
2023/04/13 06:25:48;;;;;;;42.65;39.22;;;;;;;;;;4996438;28;20030;-62
2023/04/13 06:28:14;;;;;;;43.38;39.50;;;;;;;;;;4995711;28;20037;-63
2023/04/13 06:30:40;;;;;;;42.20;38.70;;;;;;;;;;4996639;28;20069;-63
2023/04/13 06:33:07;;;;;;;40.80;37.38;;;;;;;;;;4995743;28;20042;-61
2023/04/13 06:35:35;;;;;;;38.83;35.50;;;;;;;;;;4996526;28;20076;-63
2023/04/13 06:38:01;;;;;;;37.65;34.60;;;;;;;;;;4996179;28;20277;-63
2023/04/13 06:40:30;;;;;;;34.47;31.65;;;;;;;;;;5011661;28;20046;-63
2023/04/13 06:42:56;;;;;;;35.05;32.08;;;;;;;;;;4996446;28;20030;-62
2023/04/13 06:45:22;;;;;;;35.60;32.50;;;;;;;;;;4995614;28;20027;-60
2023/04/13 06:47:48;;;;;;;32.20;29.52;;;;;;;;;;5011671;28;20058;-62
2023/04/13 06:50:15;;;;;;;33.03;30.23;;;;;;;;;;4996187;28;20061;-62
2023/04/13 06:52:42;;;;;;;30.70;28.10;;;;;;;;;;4994985;28;20138;-63
2023/04/13 06:55:08;;;;;;;30.23;27.33;;;;;;;;;;4994520;28;20038;-63
2023/04/13 06:57:34;;;;;;;28.67;25.88;;;;;;;;;;4999037;28;20073;-61
2023/04/13 07:00:00;;;;;;;29.23;26.63;;;;;;;;;;5002355;28;20105;-61
2023/04/13 07:02:27;;;;;;;27.90;25.45;;;;;;;;;;4999738;28;20088;-61
2023/04/13 07:04:53;;;;;;;27.63;24.90;;;;;;;;;;4993681;28;20035;-63
2023/04/13 07:07:20;;;;;;;28.27;25.70;;;;;;;;;;4994443;28;20029;-62
2023/04/13 07:09:46;;;;;;;27.85;25.33;;;;;;;;;;4997240;28;20032;-61
2023/04/13 07:12:12;;;;;;;27.35;24.65;;;;;;;;;;4996905;28;20023;-63
2023/04/13 07:14:39;;;;;;;27.85;25.35;;;;;;;;;;5029907;28;20064;-62
2023/04/13 07:17:06;;;;;;;27.10;24.55;;;;;;;;;;5015497;28;20033;-62
2023/04/13 07:19:33;;;;;;;28.98;26.10;;;;;;;;;;5014974;28;20077;-62
2023/04/13 07:21:59;;;;;;;25.65;23.27;;;;;;;;;;5015320;28;20026;-63
2023/04/13 07:24:26;;;;;;;27.17;24.40;;;;;;;;;;5014661;28;20040;-62
2023/04/13 07:26:53;;;;;;;26.65;24.25;;;;;;;;;;5014832;28;20026;-61
2023/04/13 07:29:19;;;;;;;30.02;26.92;;;;;;;;;;5014838;28;20037;-62
2023/04/13 07:31:46;;;;;;;26.35;23.70;;;;;;;;;;5015147;28;20372;-62
2023/04/13 07:34:12;;;;;;;26.60;24.20;;;;;;;;;;5013980;28;20137;-62
2023/04/13 07:36:38;;;;;;;25.48;23.02;;;;;;;;;;5014608;28;20124;-60
2023/04/13 07:39:07;;;;;;;26.08;23.67;;;;;;;;;;5014809;28;20022;-63
2023/04/13 07:41:33;;;;;;;24.67;22.38;;;;;;;;;;5014681;28;20026;-63
2023/04/13 07:43:59;;;;;;;23.60;21.27;;;;;;;;;;5013616;28;20152;-62
2023/04/13 07:46:26;;;;;;;22.40;19.02;;;;;;;;;;5012682;28;20022;-63
2023/04/13 07:48:55;;;;;;;20.80;18.45;;;;;;;;;;4994819;28;20022;-65
2023/04/13 07:51:21;;;;;;;20.77;18.58;;;;;;;;;;4994961;28;20050;-64
2023/04/13 07:53:47;;;;;;;20.00;16.80;;;;;;;;;;4993892;28;20030;-64
2023/04/13 07:56:14;;;;;;;17.85;14.73;;;;;;;;;;4994424;28;20479;-64
2023/04/13 07:58:40;;;;;;;21.90;13.98;;;;;;;;;;4994595;28;20030;-64
2023/04/13 08:01:06;;;;;;;18.35;14.25;;;;;;;;;;4977320;28;20662;-63
2023/04/13 08:03:35;;;;;;;17.88;13.88;;;;;;;;;;4994024;28;20102;-64
2023/04/13 08:06:01;;;;;;;18.45;13.80;;;;;;;;;;4991756;28;20038;-63
2023/04/13 08:08:28;;;;;;;17.65;12.90;;;;;;;;;;4994402;28;20034;-63
2023/04/13 08:10:54;;;;;;;16.80;12.48;;;;;;;;;;4977706;28;20037;-59
2023/04/13 08:13:22;;;;;;;17.42;12.00;;;;;;;;;;4994355;28;20030;-65
2023/04/13 08:15:48;;;;;;;15.95;11.32;;;;;;;;;;4994845;28;20141;-65
2023/04/13 08:18:14;;;;;;;16.98;10.40;;;;;;;;;;5009645;28;20031;-64
2023/04/13 08:20:40;;;;;;;17.50;10.60;;;;;;;;;;4994431;28;20023;-63
2023/04/13 08:23:06;;;;;;;16.50;9.82;;;;;;;;;;4994049;28;20069;-64
2023/04/13 08:25:38;;;;;;;20.60;10.00;;;;;;;;;;5009417;28;20026;-64
2023/04/13 08:28:04;;;;;;;16.02;9.80;;;;;;;;;;4994352;28;20426;-62
2023/04/13 08:30:33;;;;;;;16.30;10.63;;;;;;;;;;5009507;28;20053;-65
2023/04/13 08:32:59;;;;;;;16.77;9.93;;;;;;;;;;4993783;28;20022;-63
2023/04/13 08:35:25;;;;;;;18.92;11.00;;;;;;;;;;4989533;28;20041;-63
2023/04/13 08:37:52;;;;;;;17.35;10.50;;;;;;;;;;4993995;28;20487;-64
2023/04/13 08:40:19;;;;;;;19.80;11.27;;;;;;;;;;4993956;28;20411;-61
2023/04/13 08:42:46;;;;;;;22.08;11.13;;;;;;;;;;5009375;28;20130;-64
2023/04/13 08:45:13;;;;;;;16.23;10.13;;;;;;;;;;4992837;28;20455;-65
2023/04/13 08:47:39;;;;;;;16.65;10.00;;;;;;;;;;5009194;28;20085;-63
2023/04/13 08:50:06;;;;;;;18.85;10.25;;;;;;;;;;4993939;28;20032;-62
2023/04/13 08:52:33;;;;;;;15.80;9.70;;;;;;;;;;4994338;28;20065;-65
2023/04/13 08:55:02;;;;;;;16.15;10.77;;;;;;;;;;4993051;28;20027;-64
2023/04/13 08:57:28;;;;;;;;;;;;;;;;;;5010140;28;20026;-65
2023/04/13 08:59:56;;;;;;;17.98;10.65;;;;;;;;;;4994014;28;19913;-66
2023/04/13 09:02:25;;;;;;;16.45;9.60;;;;;;;;;;5009010;28;20034;-64
2023/04/13 09:04:50;;;;;;;;;;;;;;;;;;5008631;28;20045;-65
2023/04/13 09:07:20;;;;;;;16.70;10.88;;;;;;;;;;4993813;28;19906;-65
2023/04/13 09:09:47;;;;;;;19.27;12.05;;;;;;;;;;5009353;28;20589;-63
2023/04/13 09:12:14;;;;;;;22.17;19.88;;;;;;;;;;4994286;28;20022;-64
2023/04/13 09:14:41;;;;;;;28.20;25.55;;;;;;;;;;5008089;28;20022;-63
2023/04/13 09:17:07;;;;;;;29.23;26.65;;;;;;;;;;4993111;28;20478;-64
2023/04/13 09:19:33;;;;;;;32.95;30.13;;;;;;;;;;5007910;28;20479;-60
2023/04/13 09:21:59;;;;;;;32.95;30.33;;;;;;;;;;5008184;28;20029;-63
2023/04/13 09:24:26;;;;;;;32.60;30.00;;;;;;;;;;5005423;28;20522;-64
2023/04/13 09:26:52;;;;;;;29.08;26.58;;;;;;;;;;4992510;28;20026;-65
2023/04/13 09:29:19;;;;;;;28.38;25.95;;;;;;;;;;4992156;28;20033;-63
2023/04/13 09:31:46;;;;;;;26.02;23.52;;;;;;;;;;4991964;28;20728;-64
2023/04/13 09:34:13;;;;;;;23.35;21.20;;;;;;;;;;5006806;28;20034;-64
2023/04/13 09:36:39;;;;;;;23.02;20.83;;;;;;;;;;5007652;28;20028;-64
2023/04/13 09:39:05;;;;;;;23.90;21.40;;;;;;;;;;4992058;28;20037;-64
2023/04/13 09:41:33;;;;;;;21.00;18.65;;;;;;;;;;4992480;28;20022;-65
2023/04/13 09:43:59;;;;;;;19.92;17.83;;;;;;;;;;5006492;28;20034;-65
2023/04/13 09:46:25;;;;;;;20.80;17.60;;;;;;;;;;4992033;28;20446;-64
2023/04/13 09:48:58;;;;;;;19.95;17.85;;;;;;;;;;4992708;28;20109;-63
2023/04/13 09:51:26;;;;;;;20.27;17.00;;;;;;;;;;4993170;28;20042;-65
2023/04/13 09:53:53;;;;;;;18.63;15.27;;;;;;;;;;4991920;28;20399;-66
2023/04/13 09:56:19;;;;;;;19.52;15.20;;;;;;;;;;5007771;28;20061;-65
2023/04/13 09:58:46;;;;;;;18.02;14.68;;;;;;;;;;4991501;28;20026;-64
2023/04/13 10:01:14;;;;;;;19.13;14.70;;;;;;;;;;4997600;28;20053;-64
2023/04/13 10:03:40;;;;;;;18.67;14.60;;;;;;;;;;4990685;28;20110;-65
2023/04/13 10:06:07;;;;;;;17.75;13.75;;;;;;;;;;5006285;28;20454;-58
2023/04/13 10:08:33;;;;;;;21.65;14.10;;;;;;;;;;4991318;28;20092;-64
2023/04/13 10:11:00;;;;;;;18.00;13.05;;;;;;;;;;5004674;28;20025;-62
2023/04/13 10:13:29;;;;;;;17.83;11.63;;;;;;;;;;4991433;28;20027;-63
2023/04/13 10:15:58;;;;;;;17.17;10.45;;;;;;;;;;5015219;28;20483;-64
2023/04/13 10:18:34;;;;;;;17.52;11.50;;;;;;;;;;5007203;28;20030;-62
2023/04/13 10:21:01;;;;;;;19.30;11.75;;;;;;;;;;4992223;28;20022;-63
2023/04/13 10:23:30;;;;;;;17.10;11.07;;;;;;;;;;5006540;28;20411;-61
2023/04/13 10:25:57;;;;;;;16.80;11.18;;;;;;;;;;4991976;28;20027;-62
2023/04/13 10:28:23;;;;;;;18.02;11.02;;;;;;;;;;5007297;28;20113;-61
2023/04/13 10:30:55;;;;;;;17.23;10.73;;;;;;;;;;4991981;28;20023;-64
2023/04/13 10:33:21;;;;;;;16.63;10.65;;;;;;;;;;4991536;28;20026;-62
2023/04/13 10:35:58;;;;;;;15.50;9.90;;;;;;;;;;4992291;28;20037;-63
2023/04/13 10:38:25;;;;;;;16.23;10.15;;;;;;;;;;4991544;28;20264;-64
2023/04/13 10:40:51;;;;;;;15.15;10.15;;;;;;;;;;4991220;28;20019;-64
2023/04/13 10:43:26;;;;;;;20.50;10.52;;;;;;;;;;4991196;28;20022;-64
2023/04/13 10:46:04;;;;;;;17.35;10.25;;;;;;;;;;4991865;28;20027;-64
2023/04/13 10:48:30;;;;;;;16.35;10.05;;;;;;;;;;4990466;28;20418;-64
2023/04/13 10:50:59;;;;;;;19.17;9.82;;;;;;;;;;4991987;28;20538;-64
2023/04/13 10:53:29;;;;;;;15.40;9.98;;;;;;;;;;4991175;28;20030;-64
2023/04/13 10:55:57;;;;;;;17.58;10.52;;;;;;;;;;4992047;28;20026;-64
2023/04/13 10:58:23;;;;;;;15.40;10.15;;;;;;;;;;5008145;28;20022;-65
2023/04/13 11:00:50;;;;;;;19.70;9.93;;;;;;;;;;5007046;28;20026;-63
2023/04/13 11:03:19;;;;;;;18.05;10.15;;;;;;;;;;4990094;28;20121;-65
2023/04/13 11:05:46;;;;;;;16.88;10.30;;;;;;;;;;5007128;28;20026;-63
2023/04/13 11:08:19;;;;;;;22.05;10.57;;;;;;;;;;5006997;28;20056;-65
2023/04/13 11:10:54;;;;;;;17.15;10.43;;;;;;;;;;4995450;28;20025;-63
2023/04/13 11:13:21;;;;;;;15.63;9.55;;;;;;;;;;4994603;28;20414;-61
2023/04/13 11:15:47;;;;;;;16.15;9.50;;;;;;;;;;5010691;28;20034;-65
2023/04/13 11:18:23;;;;;;;16.50;9.80;;;;;;;;;;4995685;28;20045;-66
2023/04/13 11:20:49;;;;;;;15.77;9.55;;;;;;;;;;5011205;28;20033;-62
2023/04/13 11:23:17;;;;;;;20.27;10.30;;;;;;;;;;4990766;28;20022;-65
2023/04/13 11:25:51;;;;;;;15.25;9.20;;;;;;;;;;5017516;28;20402;-64
2023/04/13 11:28:18;;;;;;;19.35;9.40;;;;;;;;;;4629379;28;10001225;-65
2023/04/13 11:30:51;;;;;;;16.20;9.38;;;;;;;;;;4981208;28;20022;-65
2023/04/13 11:33:23;;;;;;;15.32;8.45;;;;;;;;;;4972466;28;20427;-65
2023/04/13 11:35:50;;;;;;;16.13;8.45;;;;;;;;;;4988466;28;20019;-63
2023/04/13 11:38:16;;;;;;;19.20;8.63;;;;;;;;;;4991545;28;20109;-63
2023/04/13 11:40:44;;;;;;;16.60;8.55;;;;;;;;;;4992582;28;20023;-65
2023/04/13 11:43:10;;;;;;;16.83;9.43;;;;;;;;;;4991647;28;20023;-65
2023/04/13 11:45:38;;;;;;;16.83;9.25;;;;;;;;;;4992251;28;20033;-63
2023/04/13 11:48:06;;;;;;;17.42;8.93;;;;;;;;;;4993575;28;20034;-64
2023/04/13 11:50:32;;;;;;;19.60;9.83;;;;;;;;;;4971216;28;20357;-63
2023/04/13 11:52:59;;;;;;;19.75;9.80;;;;;;;;;;4990911;28;20305;-64
2023/04/13 11:55:25;;;;;;;17.90;9.10;;;;;;;;;;5018530;23;20426;-60
2023/04/13 11:57:51;;;;;;;16.52;9.65;;;;;;;;;;5049648;28;20610;-61
2023/04/13 12:00:22;;;;;;;16.63;9.25;;;;;;;;;;5049658;28;20036;-60
2023/04/13 12:02:50;;;;;;;18.33;9.80;;;;;;;;;;5049410;28;20021;-62
2023/04/13 12:05:21;;;;;;;16.60;9.63;;;;;;;;;;5049321;28;20087;-60
2023/04/13 12:07:47;;;;;;;18.70;9.40;;;;;;;;;;5031898;28;20057;-61
2023/04/13 12:10:30;;;;;;;16.17;9.20;;;;;;;;;;5032146;28;20134;-62
2023/04/13 12:12:59;;;;;;;17.77;9.60;;;;;;;;;;5049689;28;20875;-61
2023/04/13 12:15:29;;;;;;;17.27;9.40;;;;;;;;;;5048794;28;20539;-60
2023/04/13 12:17:56;;;;;;;18.38;10.70;;;;;;;;;;5049773;28;20017;-60
2023/04/13 12:20:23;;;;;;;17.73;10.05;;;;;;;;;;5049441;28;20094;-62
2023/04/13 12:22:49;;;;;;;21.88;10.55;;;;;;;;;;5031836;28;20060;-59
2023/04/13 12:25:16;;;;;;;18.88;10.25;;;;;;;;;;5049204;28;20482;-55
2023/04/13 12:27:42;;;;;;;17.98;10.07;;;;;;;;;;5031218;28;20039;-61
2023/04/13 12:30:12;;;;;;;17.80;9.68;;;;;;;;;;5038667;28;20108;-56
2023/04/13 12:32:46;;;;;;;19.35;9.88;;;;;;;;;;5049521;28;20104;-62
2023/04/13 12:35:12;;;;;;;16.00;9.90;;;;;;;;;;5048588;28;20044;-62
2023/04/13 12:37:40;;;;;;;17.13;9.80;;;;;;;;;;5031186;28;20025;-60
2023/04/13 12:40:08;;;;;;;18.55;9.90;;;;;;;;;;5049044;28;20714;-62
2023/04/13 12:42:34;;;;;;;21.98;10.20;;;;;;;;;;5033336;28;20062;-59
2023/04/13 12:45:00;;;;;;;16.42;9.30;;;;;;;;;;5047966;28;20400;-61
2023/04/13 12:47:26;;;;;;;19.67;10.32;;;;;;;;;;5046569;28;20040;-59
2023/04/13 12:49:52;;;;;;;17.30;9.88;;;;;;;;;;5049824;28;20051;-60
2023/04/13 12:52:18;;;;;;;17.00;9.65;;;;;;;;;;5032100;28;20438;-59
2023/04/13 12:54:44;;;;;;;19.05;9.70;;;;;;;;;;5050970;28;20036;-62
2023/04/13 12:57:14;;;;;;;18.67;9.82;;;;;;;;;;5051664;28;20037;-61
2023/04/13 12:59:40;;;;;;;19.98;10.00;;;;;;;;;;5051812;28;20438;-60
2023/04/13 13:02:06;;;;;;;16.48;9.10;;;;;;;;;;5033921;28;20032;-60
2023/04/13 13:04:32;;;;;;;16.67;9.57;;;;;;;;;;5033401;28;20515;-63
2023/04/13 13:06:59;;;;;;;17.65;9.80;;;;;;;;;;5051639;28;20025;-59
2023/04/13 13:09:25;;;;;;;16.15;9.45;;;;;;;;;;5051710;28;20033;-60
2023/04/13 13:11:51;;;;;;;18.55;10.82;;;;;;;;;;5051614;28;20048;-62
2023/04/13 13:14:19;;;;;;;18.83;9.43;;;;;;;;;;5035176;28;20485;-62
2023/04/13 13:16:45;;;;;;;16.15;10.02;;;;;;;;;;5051354;28;20027;-61
2023/04/13 13:19:11;;;;;;;16.33;9.27;;;;;;;;;;5051082;28;20028;-62
2023/04/13 13:21:37;;;;;;;15.13;9.55;;;;;;;;;;5051440;28;20485;-58
2023/04/13 13:24:03;;;;;;;20.92;10.30;;;;;;;;;;5050375;28;20061;-62
2023/04/13 13:26:29;;;;;;;16.65;9.90;;;;;;;;;;5051131;28;20031;-63
2023/04/13 13:28:55;;;;;;;19.63;9.60;;;;;;;;;;5051247;28;20095;-59
2023/04/13 13:31:21;;;;;;;21.52;10.30;;;;;;;;;;5051985;28;20496;-63
2023/04/13 13:33:47;;;;;;;18.88;9.98;;;;;;;;;;5050353;28;20033;-63
2023/04/13 13:36:14;;;;;;;20.58;10.02;;;;;;;;;;5050964;28;20029;-61
2023/04/13 13:38:41;;;;;;;17.20;9.00;;;;;;;;;;5051204;28;20029;-65
2023/04/13 13:41:07;;;;;;;18.63;10.18;;;;;;;;;;5033647;28;20469;-62
2023/04/13 13:43:33;;;;;;;16.90;10.13;;;;;;;;;;5050552;28;20036;-63
2023/04/13 13:45:59;;;;;;;16.67;10.23;;;;;;;;;;5033114;28;20115;-63
2023/04/13 13:48:27;;;;;;;20.13;10.07;;;;;;;;;;5045751;28;20044;-61
2023/04/13 13:50:54;;;;;;;17.27;10.13;;;;;;;;;;5049564;28;20047;-63
2023/04/13 13:53:20;;;;;;;18.65;10.00;;;;;;;;;;4695965;28;10000408;-64
2023/04/13 13:55:48;;;;;;;17.98;10.38;;;;;;;;;;5028682;28;20033;-61
2023/04/13 13:58:14;;;;;;;17.15;10.55;;;;;;;;;;5048270;28;20562;-62
2023/04/13 14:00:40;;;;;;;17.00;10.23;;;;;;;;;;5048241;28;20032;-63
2023/04/13 14:03:07;;;;;;;16.45;9.85;;;;;;;;;;5048408;28;20031;-62
2023/04/13 14:05:33;;;;;;;20.63;11.98;;;;;;;;;;5050476;28;20024;-61
2023/04/13 14:07:59;;;;;;;19.05;10.50;;;;;;;;;;5057081;28;20532;-60
2023/04/13 14:10:25;;;;;;;17.05;10.57;;;;;;;;;;5046685;28;20025;-62
2023/04/13 14:12:51;;;;;;;17.35;10.27;;;;;;;;;;5047447;28;20086;-60
2023/04/13 14:15:18;;;;;;;19.27;10.38;;;;;;;;;;5049013;28;20047;-63
2023/04/13 14:17:44;;;;;;;20.77;10.43;;;;;;;;;;5051573;28;20017;-63
2023/04/13 14:20:13;;;;;;;18.27;10.45;;;;;;;;;;5050768;28;20327;-59
2023/04/13 14:22:40;;;;;;;17.73;9.98;;;;;;;;;;5051203;28;20026;-63